createdAt,value
2023-05-10T00:02:49.422Z,8.77
2023-05-10T00:05:51.959Z,8.96
2023-05-10T00:08:54.420Z,8.62
2023-05-10T00:11:59.345Z,8.86
2023-05-10T00:15:01.831Z,8.69
2023-05-10T00:18:05.301Z,8.75
2023-05-10T00:21:07.737Z,8.65
2023-05-10T00:24:10.261Z,8.56
2023-05-10T00:27:12.776Z,8.43
2023-05-10T00:30:16.248Z,8.50
2023-05-10T00:33:19.328Z,8.34
2023-05-10T00:36:22.171Z,8.50
2023-05-10T00:39:24.752Z,8.47
2023-05-10T00:42:27.116Z,8.44
2023-05-10T00:45:34.460Z,8.44
2023-05-10T00:48:37.309Z,8.22
2023-05-10T00:51:40.087Z,8.34
2023-05-10T00:54:42.896Z,8.33
2023-05-10T00:57:45.582Z,8.38
2023-05-10T01:00:49.460Z,8.43
2023-05-10T01:03:52.228Z,8.47
2023-05-10T01:06:54.759Z,8.32
2023-05-10T01:09:57.824Z,8.21
2023-05-10T01:13:00.981Z,8.32
2023-05-10T01:16:04.377Z,8.27
2023-05-10T01:19:13.896Z,8.31
2023-05-10T01:22:41.059Z,8.19
2023-05-10T01:26:34.911Z,8.25
2023-05-10T01:29:51.494Z,8.27
2023-05-10T01:33:19.385Z,8.28
2023-05-10T01:37:03.817Z,8.24
2023-05-10T01:40:14.382Z,8.18
2023-05-10T01:43:24.151Z,7.89
2023-05-10T01:46:38.043Z,8.03
2023-05-10T01:49:48.655Z,8.02
2023-05-10T01:52:56.485Z,7.95
2023-05-10T01:56:01.428Z,7.74
2023-05-10T01:59:08.077Z,7.77
2023-05-10T02:02:13.216Z,7.57
2023-05-10T02:05:17.201Z,7.51
2023-05-10T02:08:21.975Z,7.51
2023-05-10T02:11:25.891Z,7.47
2023-05-10T02:14:29.970Z,7.41
2023-05-10T02:17:33.801Z,7.56
2023-05-10T02:20:38.027Z,7.48
2023-05-10T02:23:41.075Z,7.55
2023-05-10T02:26:45.258Z,7.19
2023-05-10T02:29:48.306Z,7.27
2023-05-10T02:32:53.417Z,7.36
2023-05-10T02:35:57.046Z,7.31
2023-05-10T02:39:03.082Z,7.06
2023-05-10T02:42:07.455Z,7.31
2023-05-10T02:45:14.283Z,7.44
2023-05-10T02:48:18.715Z,7.53
2023-05-10T02:51:25.869Z,7.49
2023-05-10T02:54:32.824Z,7.47
2023-05-10T02:57:38.332Z,7.22
2023-05-10T03:00:40.905Z,7.20
2023-05-10T03:03:43.709Z,6.99
2023-05-10T03:06:46.677Z,7.06
2023-05-10T03:09:50.461Z,7.05
2023-05-10T03:13:13.926Z,6.81
2023-05-10T03:16:20.495Z,6.96
2023-05-10T03:19:40.886Z,6.76
2023-05-10T03:22:48.241Z,6.93
2023-05-10T03:25:51.776Z,6.96
2023-05-10T03:28:55.444Z,7.04
2023-05-10T03:32:01.192Z,6.80
2023-05-10T03:35:10.095Z,6.96
2023-05-10T03:38:14.135Z,6.83
2023-05-10T03:41:16.586Z,6.93
2023-05-10T03:44:19.125Z,7.08
2023-05-10T03:47:21.523Z,7.00
2023-05-10T03:50:24.401Z,7.25
2023-05-10T03:53:27.907Z,7.59
2023-05-10T03:56:31.100Z,7.60
2023-05-10T03:59:33.893Z,7.91
2023-05-10T04:02:36.457Z,8.24
2023-05-10T04:05:39.131Z,8.40
2023-05-10T04:08:42.217Z,8.58
2023-05-10T04:11:44.588Z,8.55
2023-05-10T04:14:46.974Z,8.70
2023-05-10T04:17:49.532Z,8.95
2023-05-10T04:20:51.983Z,9.17
2023-05-10T04:23:54.421Z,9.16
2023-05-10T04:26:57.904Z,9.46
2023-05-10T04:30:00.542Z,9.33
2023-05-10T04:33:02.991Z,9.48
2023-05-10T04:36:06.082Z,9.72
2023-05-10T04:39:08.555Z,9.90
2023-05-10T04:42:11.122Z,9.85
2023-05-10T04:45:15.589Z,9.87
2023-05-10T04:48:17.961Z,9.95
2023-05-10T04:51:21.504Z,9.94
2023-05-10T04:54:23.941Z,10.10
2023-05-10T04:57:26.392Z,9.70
2023-05-10T05:00:28.821Z,10.11
2023-05-10T05:03:31.252Z,10.15
2023-05-10T05:06:34.070Z,10.29
2023-05-10T05:09:36.603Z,10.23
2023-05-10T05:12:39.088Z,10.44
2023-05-10T05:15:41.528Z,10.67
2023-05-10T05:18:44.112Z,10.63
2023-05-10T05:21:46.738Z,10.85
2023-05-10T05:24:49.139Z,11.14
2023-05-10T05:27:51.610Z,11.21
2023-05-10T05:30:54.106Z,11.23
2023-05-10T05:33:56.767Z,11.31
2023-05-10T05:36:59.159Z,11.52
2023-05-10T05:40:02.775Z,11.47
2023-05-10T05:43:05.197Z,11.78
2023-05-10T05:46:07.572Z,11.81
2023-05-10T05:49:10.028Z,12.97
2023-05-10T05:52:12.668Z,14.25
2023-05-10T05:55:15.311Z,13.75
2023-05-10T05:58:18.005Z,14.52
2023-05-10T06:01:20.644Z,15.06
2023-05-10T06:04:23.258Z,15.31
2023-05-10T06:07:26.414Z,15.80
2023-05-10T06:10:28.938Z,14.59
2023-05-10T06:13:33.698Z,14.39
2023-05-10T06:16:36.342Z,16.09
2023-05-10T06:19:38.857Z,16.23
2023-05-10T06:22:41.271Z,16.87
2023-05-10T06:25:43.756Z,16.10
2023-05-10T06:28:46.209Z,16.51
2023-05-10T06:31:49.172Z,16.05
2023-05-10T06:34:51.951Z,17.01
2023-05-10T06:37:54.349Z,18.64
2023-05-10T06:40:56.801Z,16.93
2023-05-10T06:43:59.293Z,15.66
2023-05-10T06:47:01.692Z,15.76
2023-05-10T06:50:04.284Z,16.05
2023-05-10T06:53:06.738Z,16.39
2023-05-10T06:56:29.088Z,17.36
2023-05-10T06:59:31.553Z,16.60
2023-05-10T07:02:34.168Z,16.25
2023-05-10T07:05:36.987Z,17.30
2023-05-10T07:08:39.397Z,17.43
2023-05-10T07:11:41.807Z,17.22
2023-05-10T07:14:44.161Z,16.63
2023-05-10T07:17:46.735Z,19.08
2023-05-10T07:20:49.172Z,19.38
2023-05-10T07:23:51.614Z,21.15
2023-05-10T07:26:53.978Z,23.17
2023-05-10T07:29:57.579Z,21.07
2023-05-10T07:33:00.322Z,21.66
2023-05-10T07:36:02.767Z,21.79
2023-05-10T07:39:05.169Z,21.74
2023-05-10T07:42:07.526Z,21.09
2023-05-10T07:45:10.415Z,20.11
2023-05-10T07:48:12.773Z,21.67
2023-05-10T07:51:15.134Z,23.84
2023-05-10T07:54:17.550Z,24.38
2023-05-10T07:57:20.800Z,24.27
2023-05-10T08:00:23.260Z,24.96
2023-05-10T08:03:25.675Z,23.41
2023-05-10T08:06:29.315Z,21.18
2023-05-10T08:09:31.689Z,21.98
2023-05-10T08:12:34.041Z,24.55
2023-05-10T08:15:36.423Z,23.14
2023-05-10T08:18:39.979Z,20.38
2023-05-10T08:21:43.409Z,18.96
2023-05-10T08:24:46.198Z,20.34
2023-05-10T08:27:48.581Z,22.68
2023-05-10T08:30:54.066Z,21.53
2023-05-10T08:33:56.675Z,20.21
2023-05-10T08:36:59.056Z,20.11
2023-05-10T08:40:01.546Z,19.27
2023-05-10T08:43:08.154Z,18.87
2023-05-10T08:46:11.631Z,18.29
2023-05-10T08:49:21.214Z,18.42
2023-05-10T08:52:27.604Z,18.55
2023-05-10T08:55:30.452Z,20.75
2023-05-10T08:58:33.016Z,24.18
2023-05-10T09:01:37.701Z,25.42
2023-05-10T09:04:40.207Z,22.98
2023-05-10T09:07:43.095Z,24.76
2023-05-10T09:10:48.190Z,25.19
2023-05-10T09:13:53.239Z,25.12
2023-05-10T09:16:56.453Z,21.90
2023-05-10T09:20:00.566Z,20.49
2023-05-10T09:23:03.103Z,20.27
2023-05-10T09:26:06.434Z,22.70
2023-05-10T09:29:09.468Z,24.12
2023-05-10T09:32:13.859Z,23.96
2023-05-10T09:35:20.295Z,25.22
2023-05-10T09:38:22.678Z,23.97
2023-05-10T09:41:26.013Z,24.55
2023-05-10T09:44:28.530Z,25.99
2023-05-10T09:47:33.582Z,26.88
2023-05-10T09:50:35.971Z,25.33
2023-05-10T09:53:38.534Z,23.48
2023-05-10T09:56:41.711Z,20.88
2023-05-10T09:59:44.503Z,20.26
2023-05-10T10:02:49.075Z,21.17
2023-05-10T10:05:52.297Z,22.97
2023-05-10T10:08:56.758Z,23.64
2023-05-10T10:12:00.761Z,24.82
2023-05-10T10:15:03.307Z,25.87
2023-05-10T10:18:06.578Z,25.16
2023-05-10T10:21:09.761Z,25.75
2023-05-10T10:24:12.105Z,24.57
2023-05-10T10:27:20.420Z,24.46
2023-05-10T10:30:31.117Z,25.29
2023-05-10T10:33:48.576Z,24.83
2023-05-10T10:36:50.965Z,24.88
2023-05-10T10:39:55.769Z,24.84
2023-05-10T10:42:59.074Z,25.71
2023-05-10T10:46:22.892Z,25.62
2023-05-10T10:49:25.878Z,27.12
2023-05-10T10:52:35.956Z,26.88
2023-05-10T10:55:49.178Z,25.95
2023-05-10T10:58:54.835Z,24.88
2023-05-10T11:01:57.598Z,25.22
2023-05-10T11:05:00.269Z,25.78
2023-05-10T11:08:08.476Z,25.34
2023-05-10T11:11:11.169Z,25.90
2023-05-10T11:14:13.538Z,26.97
2023-05-10T11:17:27.731Z,26.57
2023-05-10T11:20:39.504Z,26.65
2023-05-10T11:23:44.622Z,27.42
2023-05-10T11:26:47.341Z,27.63
2023-05-10T11:29:52.787Z,27.68
2023-05-10T11:32:55.702Z,26.29
2023-05-10T11:35:58.260Z,26.67
2023-05-10T11:39:00.798Z,24.18
2023-05-10T11:42:03.359Z,22.33
2023-05-10T11:45:06.849Z,21.94
2023-05-10T11:48:09.324Z,21.18
2023-05-10T11:51:12.353Z,20.56
2023-05-10T11:54:14.900Z,20.49
2023-05-10T11:57:18.917Z,20.37
2023-05-10T12:00:22.300Z,22.46
2023-05-10T12:03:24.822Z,22.28
2023-05-10T12:06:29.732Z,23.38
2023-05-10T12:09:43.270Z,23.00
2023-05-10T12:12:50.888Z,22.64
2023-05-10T12:15:53.510Z,22.78
2023-05-10T12:19:01.361Z,23.41
2023-05-10T12:22:06.496Z,23.82
2023-05-10T12:25:11.815Z,22.86
2023-05-10T12:28:14.199Z,23.51
2023-05-10T12:31:16.666Z,24.95
2023-05-10T12:34:31.484Z,25.73
2023-05-10T12:37:36.832Z,26.55
2023-05-10T12:40:39.255Z,26.63
2023-05-10T12:43:41.962Z,26.70
2023-05-10T12:46:44.328Z,25.58
2023-05-10T12:49:46.885Z,27.06
2023-05-10T12:52:49.199Z,25.86
2023-05-10T12:55:51.586Z,25.08
2023-05-10T12:58:54.021Z,25.36
2023-05-10T13:01:56.457Z,25.49
2023-05-10T13:04:58.884Z,24.89
2023-05-10T13:08:01.497Z,24.39
2023-05-10T13:11:04.450Z,25.55
2023-05-10T13:14:06.773Z,26.23
2023-05-10T13:17:09.434Z,25.05
2023-05-10T13:20:12.255Z,23.36
2023-05-10T13:23:14.661Z,22.63
2023-05-10T13:26:17.104Z,22.37
2023-05-10T13:29:20.290Z,23.54
2023-05-10T13:32:22.724Z,23.59
2023-05-10T13:35:25.169Z,22.79
2023-05-10T13:38:27.535Z,21.81
2023-05-10T13:41:29.995Z,21.26
2023-05-10T13:44:34.405Z,20.40
2023-05-10T13:47:37.404Z,20.37
2023-05-10T13:50:39.806Z,20.55
2023-05-10T13:53:42.450Z,20.44
2023-05-10T13:56:44.983Z,20.60
2023-05-10T13:59:47.665Z,20.75
2023-05-10T14:02:50.060Z,21.13
2023-05-10T14:05:52.492Z,21.69
2023-05-10T14:08:54.955Z,21.49
2023-05-10T14:11:57.523Z,20.99
2023-05-10T14:14:59.889Z,21.35
2023-05-10T14:18:02.721Z,21.16
2023-05-10T14:21:05.181Z,20.92
2023-05-10T14:24:08.208Z,21.30
2023-05-10T14:27:10.519Z,21.20
2023-05-10T14:30:13.249Z,20.85
2023-05-10T14:33:15.923Z,20.29
2023-05-10T14:36:18.647Z,20.68
2023-05-10T14:39:20.974Z,20.50
2023-05-10T14:42:23.351Z,20.47
2023-05-10T14:45:25.714Z,20.00
2023-05-10T14:48:28.106Z,20.05
2023-05-10T14:51:30.780Z,20.05
2023-05-10T14:54:34.495Z,20.36
2023-05-10T14:57:37.141Z,20.59
2023-05-10T15:00:39.520Z,20.30
2023-05-10T15:03:42.322Z,20.17
2023-05-10T15:06:45.320Z,19.94
2023-05-10T15:09:47.766Z,19.85
2023-05-10T15:12:51.082Z,19.67
2023-05-10T15:15:53.724Z,19.53
2023-05-10T15:18:56.156Z,19.57
2023-05-10T15:21:58.639Z,19.36
2023-05-10T15:25:01.138Z,19.03
2023-05-10T15:28:03.963Z,19.10
2023-05-10T15:31:06.329Z,18.97
2023-05-10T15:34:08.683Z,18.97
2023-05-10T15:37:11.066Z,18.87
2023-05-10T15:40:13.461Z,18.76
2023-05-10T15:43:16.267Z,18.73
2023-05-10T15:46:18.638Z,18.90
2023-05-10T15:49:21.227Z,19.08
2023-05-10T15:52:24.405Z,19.03
2023-05-10T15:55:26.975Z,19.02
2023-05-10T15:58:29.331Z,18.69
2023-05-10T16:01:32.909Z,18.57
2023-05-10T16:04:35.347Z,18.64
2023-05-10T16:07:37.758Z,18.47
2023-05-10T16:10:40.139Z,18.35
2023-05-10T16:13:42.565Z,18.38
2023-05-10T16:16:45.055Z,18.35
2023-05-10T16:19:47.557Z,18.28
2023-05-10T16:22:49.964Z,18.18
2023-05-10T16:25:52.332Z,18.24
2023-05-10T16:28:54.771Z,18.04
2023-05-10T16:31:57.147Z,18.04
2023-05-10T16:35:00.438Z,18.06
2023-05-10T16:38:03.062Z,17.89
2023-05-10T16:41:06.732Z,17.72
2023-05-10T16:44:09.083Z,17.63
2023-05-10T16:47:11.383Z,17.59
2023-05-10T16:50:14.937Z,17.55
2023-05-10T16:53:17.346Z,17.45
2023-05-10T16:56:21.795Z,17.20
2023-05-10T16:59:24.247Z,17.20
2023-05-10T17:02:26.826Z,17.12
2023-05-10T17:05:29.518Z,16.94
2023-05-10T17:08:31.846Z,16.75
2023-05-10T17:11:34.264Z,16.53
2023-05-10T17:14:38.200Z,16.56
2023-05-10T17:17:40.594Z,16.29
2023-05-10T17:20:44.729Z,16.04
2023-05-10T17:23:47.082Z,15.80
2023-05-10T17:26:49.424Z,15.83
2023-05-10T17:29:56.453Z,15.66
2023-05-10T17:33:00.153Z,15.64
2023-05-10T17:36:02.708Z,15.53
2023-05-10T17:39:05.139Z,15.30
2023-05-10T17:42:07.597Z,15.16
2023-05-10T17:45:10.775Z,15.03
2023-05-10T17:48:13.468Z,14.83
2023-05-10T17:51:15.833Z,14.55
2023-05-10T17:54:18.231Z,14.30
2023-05-10T17:57:20.891Z,14.38
2023-05-10T18:00:23.348Z,14.23
2023-05-10T18:03:25.840Z,13.90
2023-05-10T18:06:28.436Z,13.78
2023-05-10T18:09:30.968Z,13.40
2023-05-10T18:12:33.301Z,13.58
2023-05-10T18:15:35.725Z,13.32
2023-05-10T18:18:39.396Z,13.16
2023-05-10T18:21:41.793Z,12.96
2023-05-10T18:24:44.203Z,12.87
2023-05-10T18:27:46.533Z,12.89
2023-05-10T18:30:48.909Z,12.70
2023-05-10T18:33:51.258Z,12.65
2023-05-10T18:36:53.845Z,12.51
2023-05-10T18:39:57.710Z,12.50
2023-05-10T18:43:00.271Z,12.33
2023-05-10T18:46:02.670Z,12.27
2023-05-10T18:49:05.868Z,12.14
2023-05-10T18:52:08.227Z,11.88
2023-05-10T18:55:10.727Z,11.96
2023-05-10T18:58:13.078Z,11.71
2023-05-10T19:01:16.346Z,11.77
2023-05-10T19:04:18.817Z,11.75
2023-05-10T19:07:21.190Z,11.62
2023-05-10T19:10:23.722Z,11.65
2023-05-10T19:13:28.331Z,11.63
2023-05-10T19:16:30.945Z,11.39
2023-05-10T19:19:33.795Z,11.38
2023-05-10T19:22:54.042Z,11.30
2023-05-10T19:25:59.850Z,11.34
2023-05-10T19:29:02.377Z,11.26
2023-05-10T19:32:05.197Z,11.09
2023-05-10T19:35:08.393Z,11.20
2023-05-10T19:38:11.014Z,11.12
2023-05-10T19:41:14.771Z,10.95
2023-05-10T19:44:18.074Z,10.99
2023-05-10T19:47:21.427Z,10.97
2023-05-10T19:50:23.824Z,10.96
2023-05-10T19:53:26.273Z,10.95
2023-05-10T19:56:29.666Z,10.99
2023-05-10T19:59:32.032Z,11.01
2023-05-10T20:02:34.407Z,10.81
2023-05-10T20:05:37.042Z,11.10
2023-05-10T20:08:39.399Z,10.92
2023-05-10T20:11:41.758Z,11.00
2023-05-10T20:14:44.401Z,10.95
2023-05-10T20:17:48.093Z,10.80
2023-05-10T20:20:55.127Z,10.73
2023-05-10T20:23:58.246Z,10.91
2023-05-10T20:27:00.910Z,10.88
2023-05-10T20:30:04.596Z,10.79
2023-05-10T20:33:07.151Z,10.78
2023-05-10T20:36:12.275Z,10.80
2023-05-10T20:39:15.073Z,10.64
2023-05-10T20:42:17.475Z,10.84
2023-05-10T20:45:20.471Z,10.83
2023-05-10T20:48:22.967Z,10.69
2023-05-10T20:51:25.456Z,10.83
2023-05-10T20:54:27.893Z,10.70
2023-05-10T20:57:30.307Z,10.63
2023-05-10T21:00:32.639Z,10.60
2023-05-10T21:03:35.191Z,10.78
2023-05-10T21:06:37.642Z,10.78
2023-05-10T21:09:39.967Z,10.68
2023-05-10T21:12:42.335Z,10.84
2023-05-10T21:15:44.703Z,10.67
2023-05-10T21:18:47.266Z,10.82
2023-05-10T21:21:49.599Z,10.63
2023-05-10T21:24:51.990Z,10.71
2023-05-10T21:27:54.312Z,10.46
2023-05-10T21:30:56.834Z,10.45
2023-05-10T21:33:59.197Z,10.82
2023-05-10T21:37:01.655Z,10.83
2023-05-10T21:40:04.883Z,10.82
2023-05-10T21:43:08.269Z,10.79
2023-05-10T21:46:10.802Z,10.91
2023-05-10T21:49:13.247Z,10.96
2023-05-10T21:52:15.572Z,10.99
2023-05-10T21:55:18.328Z,10.82
2023-05-10T21:58:20.860Z,10.93
2023-05-10T22:01:23.295Z,10.75
2023-05-10T22:04:25.658Z,10.93
2023-05-10T22:07:28.144Z,10.85
2023-05-10T22:10:30.497Z,10.59
2023-05-10T22:13:32.838Z,10.50
2023-05-10T22:16:35.684Z,10.63
2023-05-10T22:19:38.130Z,10.65
2023-05-10T22:22:40.438Z,10.68
2023-05-10T22:25:43.034Z,10.64
2023-05-10T22:28:45.403Z,10.63
2023-05-10T22:31:47.851Z,10.63
2023-05-10T22:34:50.224Z,10.69
2023-05-10T22:37:52.572Z,10.71
2023-05-10T22:40:54.937Z,10.54
2023-05-10T22:43:57.274Z,10.69
2023-05-10T22:46:59.903Z,10.49
2023-05-10T22:50:05.423Z,10.67
2023-05-10T22:53:08.081Z,10.64
2023-05-10T22:56:10.475Z,10.58
2023-05-10T22:59:12.840Z,10.57
2023-05-10T23:02:15.475Z,10.44
2023-05-10T23:05:18.114Z,10.49
2023-05-10T23:08:20.468Z,10.28
2023-05-10T23:11:22.897Z,10.23
2023-05-10T23:14:25.246Z,10.29
2023-05-10T23:17:27.640Z,10.08
2023-05-10T23:20:30.068Z,10.18
2023-05-10T23:23:34.035Z,10.06
2023-05-10T23:26:36.411Z,9.86
2023-05-10T23:29:38.773Z,9.92
2023-05-10T23:32:41.129Z,9.97
2023-05-10T23:35:43.552Z,10.06
2023-05-10T23:38:45.990Z,9.84
2023-05-10T23:41:48.358Z,9.81
2023-05-10T23:44:52.299Z,9.67
2023-05-10T23:47:54.721Z,9.18
2023-05-10T23:50:57.122Z,9.41
2023-05-10T23:53:59.601Z,9.11
2023-05-10T23:57:02.087Z,9.08
